createdAt,value
2022-07-30T00:00:23.803Z,13.00
2022-07-30T00:02:53.129Z,14.27
2022-07-30T00:05:20.402Z,5.97
2022-07-30T00:07:47.496Z,5.95
2022-07-30T00:10:14.414Z,7.25
2022-07-30T00:12:41.590Z,7.03
2022-07-30T00:15:09.238Z,6.32
2022-07-30T00:17:36.075Z,7.60
2022-07-30T00:20:03.574Z,8.73
2022-07-30T00:22:31.125Z,10.05
2022-07-30T00:24:58.123Z,11.82
2022-07-30T00:27:25.386Z,11.40
2022-07-30T00:29:52.237Z,11.05
2022-07-30T00:32:19.192Z,11.15
2022-07-30T00:34:46.244Z,7.70
2022-07-30T00:37:13.167Z,9.00
2022-07-30T00:39:39.992Z,10.15
2022-07-30T00:42:06.889Z,9.45
2022-07-30T00:44:33.927Z,8.18
2022-07-30T00:47:00.975Z,10.55
2022-07-30T00:49:28.162Z,13.75
2022-07-30T00:51:55.584Z,11.25
2022-07-30T00:54:22.563Z,12.25
2022-07-30T00:56:49.996Z,11.55
2022-07-30T00:59:17.441Z,14.75
2022-07-30T01:01:44.259Z,11.23
2022-07-30T01:04:11.902Z,12.05
2022-07-30T01:06:40.237Z,14.93
2022-07-30T01:09:07.764Z,14.65
2022-07-30T01:11:38.205Z,12.10
2022-07-30T01:14:06.836Z,11.90
2022-07-30T01:16:35.765Z,10.00
2022-07-30T01:19:28.426Z,8.88
2022-07-30T01:22:05.966Z,10.52
2022-07-30T01:24:42.133Z,11.05
2022-07-30T01:27:11.666Z,12.73
2022-07-30T01:29:40.968Z,11.68
2022-07-30T01:32:10.927Z,12.50
2022-07-30T01:34:39.456Z,13.23
2022-07-30T01:37:09.015Z,14.10
2022-07-30T01:39:38.539Z,14.07
2022-07-30T01:42:08.523Z,11.30
2022-07-30T01:44:38.008Z,6.10
2022-07-30T01:47:06.346Z,5.60
2022-07-30T01:49:36.651Z,7.03
2022-07-30T01:52:05.092Z,5.97
2022-07-30T01:54:33.790Z,7.40
2022-07-30T01:57:01.967Z,8.00
2022-07-30T01:59:34.433Z,10.48
2022-07-30T02:02:02.419Z,9.23
2022-07-30T02:04:30.022Z,9.73
2022-07-30T02:07:22.314Z,14.48
2022-07-30T02:09:58.580Z,15.57
2022-07-30T02:12:29.744Z,15.82
2022-07-30T02:15:14.283Z,16.45
2022-07-30T02:17:56.633Z,14.98
2022-07-30T02:20:29.494Z,15.13
2022-07-30T02:23:03.291Z,17.48
2022-07-30T02:25:33.701Z,17.98
2022-07-30T02:28:10.030Z,17.95
2022-07-30T02:30:43.087Z,17.38
2022-07-30T02:33:12.724Z,16.88
2022-07-30T02:35:41.219Z,16.95
2022-07-30T02:38:11.887Z,16.40
2022-07-30T02:40:42.014Z,16.23
2022-07-30T02:43:10.018Z,15.80
2022-07-30T02:45:38.112Z,15.25
2022-07-30T02:48:07.787Z,15.35
2022-07-30T02:50:35.789Z,13.63
2022-07-30T02:53:06.834Z,13.57
2022-07-30T02:55:35.558Z,12.93
2022-07-30T02:58:05.697Z,12.82
2022-07-30T03:00:34.628Z,12.35
2022-07-30T03:03:05.707Z,11.77
2022-07-30T03:05:33.140Z,11.15
2022-07-30T03:08:01.704Z,12.15
2022-07-30T03:10:30.202Z,12.27
2022-07-30T03:12:59.778Z,11.40
2022-07-30T03:15:28.912Z,11.85
2022-07-30T03:17:57.640Z,12.60
2022-07-30T03:20:28.351Z,13.68
2022-07-30T03:22:58.378Z,12.57
2022-07-30T03:25:29.746Z,12.68
2022-07-30T03:27:59.337Z,12.93
2022-07-30T03:30:28.501Z,14.43
2022-07-30T03:32:56.579Z,14.98
2022-07-30T03:35:27.604Z,15.70
2022-07-30T03:38:00.512Z,14.50
2022-07-30T03:40:29.094Z,14.25
2022-07-30T03:42:56.464Z,16.75
2022-07-30T03:45:25.216Z,16.55
2022-07-30T03:47:57.432Z,17.42
2022-07-30T03:50:24.799Z,16.58
2022-07-30T03:52:52.705Z,17.00
2022-07-30T03:55:20.020Z,16.67
2022-07-30T03:57:49.973Z,16.17
2022-07-30T04:00:18.941Z,17.15
2022-07-30T04:02:52.136Z,17.77
2022-07-30T04:05:47.316Z,19.10
2022-07-30T04:08:14.279Z,18.40
2022-07-30T04:10:44.168Z,17.13
2022-07-30T04:13:40.461Z,17.35
2022-07-30T04:16:40.996Z,18.33
2022-07-30T04:19:03.572Z,16.90
2022-07-30T04:21:33.509Z,17.85
2022-07-30T04:24:05.202Z,17.23
2022-07-30T04:26:36.218Z,18.27
2022-07-30T04:29:07.515Z,19.73
2022-07-30T04:31:38.158Z,19.05
2022-07-30T04:34:27.230Z,19.13
2022-07-30T04:36:54.437Z,18.88
2022-07-30T04:39:21.350Z,18.48
2022-07-30T04:41:49.526Z,19.38
2022-07-30T04:44:31.647Z,19.58
2022-07-30T04:47:18.702Z,20.83
2022-07-30T04:49:58.249Z,18.90
2022-07-30T04:52:30.035Z,20.05
2022-07-30T04:55:05.398Z,19.27
2022-07-30T04:57:35.536Z,19.02
2022-07-30T05:00:02.504Z,20.13
2022-07-30T05:02:33.791Z,21.05
2022-07-30T05:05:01.675Z,20.10
2022-07-30T05:07:31.613Z,20.83
2022-07-30T05:09:59.739Z,20.48
2022-07-30T05:12:39.590Z,19.33
2022-07-30T05:15:08.093Z,20.48
2022-07-30T05:17:36.049Z,20.20
2022-07-30T05:20:06.248Z,19.48
2022-07-30T05:22:50.618Z,19.40
2022-07-30T05:25:19.298Z,22.52
2022-07-30T05:27:46.310Z,20.48
2022-07-30T05:30:13.320Z,21.33
2022-07-30T05:32:46.436Z,23.08
2022-07-30T05:35:14.196Z,23.08
2022-07-30T05:37:41.072Z,25.38
2022-07-30T05:40:08.551Z,23.77
2022-07-30T05:43:02.083Z,23.95
2022-07-30T05:45:29.160Z,26.17
2022-07-30T05:47:56.124Z,25.20
2022-07-30T05:50:23.165Z,26.15
2022-07-30T05:52:50.399Z,23.88
2022-07-30T05:55:42.785Z,22.30
2022-07-30T05:58:18.513Z,20.77
2022-07-30T06:00:46.159Z,20.35
2022-07-30T06:03:13.945Z,20.85
2022-07-30T06:06:05.167Z,20.98
2022-07-30T06:08:32.457Z,20.85
2022-07-30T06:10:59.931Z,20.92
2022-07-30T06:13:27.336Z,20.70
2022-07-30T06:15:54.245Z,19.33
2022-07-30T06:18:23.152Z,20.45
2022-07-30T06:20:54.285Z,19.50
2022-07-30T06:23:39.798Z,19.65
2022-07-30T06:26:15.386Z,18.58
2022-07-30T06:28:43.255Z,19.10
2022-07-30T06:31:17.439Z,18.75
2022-07-30T06:33:44.506Z,17.67
2022-07-30T06:36:14.101Z,18.23
2022-07-30T06:39:00.060Z,18.08
2022-07-30T06:41:49.956Z,17.42
2022-07-30T06:44:16.915Z,16.38
2022-07-30T06:47:20.689Z,15.98
2022-07-30T06:49:47.505Z,15.50
2022-07-30T06:52:18.531Z,15.88
2022-07-30T06:54:50.450Z,14.90
2022-07-30T06:57:43.455Z,14.82
2022-07-30T07:00:30.406Z,13.38
2022-07-30T07:03:01.456Z,14.02
2022-07-30T07:05:38.499Z,14.43
2022-07-30T07:08:05.594Z,14.02
2022-07-30T07:10:37.432Z,13.93
2022-07-30T07:13:20.238Z,13.77
2022-07-30T07:15:47.212Z,13.30
2022-07-30T07:18:18.876Z,13.18
2022-07-30T07:21:15.713Z,13.38
2022-07-30T07:23:43.427Z,13.68
2022-07-30T07:26:33.269Z,14.77
2022-07-30T07:29:04.969Z,13.93
2022-07-30T07:32:07.441Z,13.80
2022-07-30T07:34:20.084Z,14.50
2022-07-30T07:36:47.358Z,15.60
2022-07-30T07:39:14.998Z,14.70
2022-07-30T07:41:43.892Z,14.55
2022-07-30T07:44:19.238Z,15.25
2022-07-30T07:46:46.131Z,14.63
2022-07-30T07:49:13.470Z,15.10
2022-07-30T07:51:51.678Z,15.45
2022-07-30T07:54:22.863Z,16.38
2022-07-30T07:56:52.939Z,17.15
2022-07-30T07:59:23.671Z,15.43
2022-07-30T08:01:58.638Z,16.25
2022-07-30T08:04:48.425Z,15.02
2022-07-30T08:07:27.416Z,15.35
2022-07-30T08:10:15.082Z,15.32
2022-07-30T08:13:05.304Z,16.63
2022-07-30T08:15:34.683Z,15.90
2022-07-30T08:18:33.851Z,15.60
2022-07-30T08:21:10.760Z,15.75
2022-07-30T08:23:42.150Z,16.08
2022-07-30T08:26:09.596Z,16.00
2022-07-30T08:28:36.875Z,15.98
2022-07-30T08:31:06.472Z,15.57
2022-07-30T08:33:33.406Z,15.10
2022-07-30T08:36:04.251Z,13.57
2022-07-30T08:38:36.247Z,12.98
2022-07-30T08:41:03.105Z,13.23
2022-07-30T08:43:31.063Z,13.55
2022-07-30T08:45:59.480Z,14.32
2022-07-30T08:48:37.511Z,13.98
2022-07-30T08:51:05.235Z,13.30
2022-07-30T08:53:36.019Z,14.65
2022-07-30T08:56:04.737Z,14.07
2022-07-30T08:58:35.069Z,14.80
2022-07-30T09:01:02.556Z,15.80
2022-07-30T09:03:29.800Z,14.63
2022-07-30T09:06:02.482Z,15.02
2022-07-30T09:08:29.565Z,14.30
2022-07-30T09:10:56.582Z,14.57
2022-07-30T09:13:29.311Z,13.90
2022-07-30T09:15:58.282Z,14.07
2022-07-30T09:18:31.926Z,14.07
2022-07-30T09:21:00.954Z,12.95
2022-07-30T09:23:30.326Z,14.30
2022-07-30T09:26:17.415Z,15.27
2022-07-30T09:28:44.199Z,14.23
2022-07-30T09:31:14.511Z,15.20
2022-07-30T09:34:00.487Z,14.90
2022-07-30T09:37:04.190Z,14.02
2022-07-30T09:39:59.286Z,15.07
2022-07-30T09:43:04.321Z,15.55
2022-07-30T09:45:34.802Z,14.30
2022-07-30T09:48:03.331Z,14.13
2022-07-30T09:50:31.050Z,15.20
2022-07-30T09:53:11.997Z,15.57
2022-07-30T09:55:42.578Z,15.45
2022-07-30T09:58:12.797Z,15.70
2022-07-30T10:00:44.305Z,14.80
2022-07-30T10:03:43.920Z,14.88
2022-07-30T10:06:37.983Z,14.23
2022-07-30T10:09:37.266Z,14.73
2022-07-30T10:12:10.468Z,14.55
2022-07-30T10:14:42.712Z,14.77
2022-07-30T10:17:13.505Z,15.45
2022-07-30T10:19:45.974Z,14.52
2022-07-30T10:22:37.695Z,15.65
2022-07-30T10:25:31.002Z,15.27
2022-07-30T10:28:38.418Z,15.27
2022-07-30T10:31:47.250Z,14.45
2022-07-30T10:33:53.422Z,14.82
2022-07-30T10:36:24.414Z,14.48
2022-07-30T10:38:53.145Z,14.93
2022-07-30T10:41:48.463Z,15.10
2022-07-30T10:44:20.778Z,15.75
2022-07-30T10:47:07.289Z,15.13
2022-07-30T10:49:41.177Z,15.45
2022-07-30T10:52:10.494Z,15.38
2022-07-30T10:54:47.682Z,16.33
2022-07-30T10:57:31.876Z,16.13
2022-07-30T11:00:00.942Z,15.70
2022-07-30T11:02:30.696Z,15.02
2022-07-30T11:05:17.344Z,15.75
2022-07-30T11:07:47.345Z,15.15
2022-07-30T11:10:34.494Z,15.07
2022-07-30T11:13:01.732Z,16.02
2022-07-30T11:15:56.653Z,15.88
2022-07-30T11:18:25.572Z,15.05
2022-07-30T11:21:20.613Z,16.05
2022-07-30T11:23:53.376Z,15.80
2022-07-30T11:26:41.722Z,14.82
2022-07-30T11:29:50.606Z,15.25
2022-07-30T11:32:33.264Z,15.13
2022-07-30T11:35:18.194Z,15.30
2022-07-30T11:38:06.472Z,15.65
2022-07-30T11:40:42.179Z,15.80
2022-07-30T11:43:35.087Z,15.43
2022-07-30T11:46:29.308Z,15.13
2022-07-30T11:49:08.842Z,15.60
2022-07-30T11:51:43.597Z,15.75
2022-07-30T11:54:11.719Z,16.05
2022-07-30T11:56:49.538Z,15.43
2022-07-30T11:59:16.681Z,15.05
2022-07-30T12:01:43.645Z,14.25
2022-07-30T12:04:10.526Z,15.25
2022-07-30T12:06:45.565Z,15.55
2022-07-30T12:09:12.931Z,14.95
2022-07-30T12:11:40.018Z,15.88
2022-07-30T12:14:06.960Z,15.10
2022-07-30T12:16:34.691Z,14.95
2022-07-30T12:19:03.816Z,14.65
2022-07-30T12:21:30.943Z,15.18
2022-07-30T12:24:03.584Z,15.50
2022-07-30T12:26:32.846Z,14.30
2022-07-30T12:29:14.026Z,15.23
2022-07-30T12:31:41.876Z,14.93
2022-07-30T12:34:25.724Z,14.50
2022-07-30T12:36:52.992Z,14.70
2022-07-30T12:39:24.851Z,14.85
2022-07-30T12:41:53.748Z,14.35
2022-07-30T12:44:36.920Z,15.35
2022-07-30T12:47:06.540Z,14.50
2022-07-30T12:49:39.447Z,14.45
2022-07-30T12:52:35.820Z,14.07
2022-07-30T12:55:12.890Z,14.63
2022-07-30T12:57:52.607Z,14.57
2022-07-30T13:00:20.349Z,15.18
2022-07-30T13:02:47.673Z,14.27
2022-07-30T13:05:14.631Z,15.10
2022-07-30T13:07:59.661Z,14.40
2022-07-30T13:10:31.163Z,14.95
2022-07-30T13:12:59.603Z,14.23
2022-07-30T13:15:26.581Z,14.18
2022-07-30T13:17:53.496Z,14.43
2022-07-30T13:20:21.104Z,14.23
2022-07-30T13:22:47.969Z,13.98
2022-07-30T13:25:14.800Z,14.27
2022-07-30T13:27:41.675Z,12.98
2022-07-30T13:30:09.295Z,13.88
2022-07-30T13:32:36.148Z,13.10
2022-07-30T13:35:03.259Z,13.05
2022-07-30T13:37:37.737Z,14.10
2022-07-30T13:40:06.506Z,13.40
2022-07-30T13:42:33.495Z,14.23
2022-07-30T13:45:01.027Z,14.10
2022-07-30T13:47:27.987Z,13.10
2022-07-30T13:49:55.022Z,13.02
2022-07-30T13:52:21.846Z,13.20
2022-07-30T13:54:51.276Z,13.88
2022-07-30T13:57:18.403Z,13.40
2022-07-30T13:59:45.334Z,12.95
2022-07-30T14:02:13.156Z,13.57
2022-07-30T14:04:39.999Z,13.07
2022-07-30T14:07:06.818Z,13.00
2022-07-30T14:09:33.627Z,12.93
2022-07-30T14:12:11.710Z,12.60
2022-07-30T14:14:38.530Z,13.18
2022-07-30T14:17:05.421Z,12.93
2022-07-30T14:19:32.372Z,12.73
2022-07-30T14:21:59.185Z,12.75
2022-07-30T14:24:26.045Z,12.52
2022-07-30T14:26:57.682Z,12.98
2022-07-30T14:29:26.460Z,12.75
2022-07-30T14:31:53.959Z,12.68
2022-07-30T14:34:20.803Z,11.98
2022-07-30T14:36:47.603Z,11.27
2022-07-30T14:39:14.882Z,11.77
2022-07-30T14:41:43.082Z,12.30
2022-07-30T14:44:12.285Z,12.38
2022-07-30T14:46:52.478Z,12.23
2022-07-30T14:49:27.153Z,12.50
2022-07-30T14:51:54.424Z,12.07
2022-07-30T14:54:21.770Z,11.80
2022-07-30T14:56:49.405Z,11.65
2022-07-30T14:59:16.959Z,11.77
2022-07-30T15:01:43.923Z,10.85
2022-07-30T15:04:11.560Z,11.25
2022-07-30T15:06:40.733Z,11.38
2022-07-30T15:09:08.891Z,11.98
2022-07-30T15:12:04.347Z,11.25
2022-07-30T15:14:22.867Z,10.63
2022-07-30T15:16:51.598Z,10.80
2022-07-30T15:19:18.425Z,12.00
2022-07-30T15:21:45.270Z,10.27
2022-07-30T15:24:12.218Z,11.00
2022-07-30T15:26:39.315Z,11.20
2022-07-30T15:29:09.254Z,10.70
2022-07-30T15:31:38.553Z,11.55
2022-07-30T15:34:10.665Z,13.32
2022-07-30T15:36:39.046Z,10.88
2022-07-30T15:39:06.732Z,10.68
2022-07-30T15:41:34.061Z,10.90
2022-07-30T15:44:00.966Z,11.40
2022-07-30T15:46:27.897Z,10.63
2022-07-30T15:48:54.982Z,11.00
2022-07-30T15:51:22.265Z,13.10
2022-07-30T15:53:49.227Z,11.38
2022-07-30T15:56:16.130Z,10.95
2022-07-30T15:58:43.652Z,10.10
2022-07-30T16:01:10.788Z,10.30
2022-07-30T16:03:37.777Z,10.32
2022-07-30T16:06:04.646Z,10.40
2022-07-30T16:08:31.476Z,9.95
2022-07-30T16:10:58.551Z,10.30
2022-07-30T16:13:25.457Z,10.07
2022-07-30T16:15:52.244Z,9.73
2022-07-30T16:18:19.032Z,10.10
2022-07-30T16:20:45.901Z,9.95
2022-07-30T16:23:16.981Z,10.10
2022-07-30T16:25:46.435Z,9.55
2022-07-30T16:28:13.272Z,9.43
2022-07-30T16:30:45.987Z,8.85
2022-07-30T16:33:19.145Z,9.70
2022-07-30T16:35:49.289Z,9.40
2022-07-30T16:38:17.928Z,9.02
2022-07-30T16:40:45.400Z,9.10
2022-07-30T16:43:12.261Z,8.82
2022-07-30T16:45:39.518Z,8.75
2022-07-30T16:48:06.619Z,9.13
2022-07-30T16:50:33.483Z,8.80
2022-07-30T16:53:00.562Z,8.68
2022-07-30T16:55:27.584Z,8.70
2022-07-30T16:57:54.429Z,8.52
2022-07-30T17:00:21.367Z,8.27
2022-07-30T17:02:48.193Z,9.57
2022-07-30T17:05:15.054Z,9.70
2022-07-30T17:07:42.125Z,9.40
2022-07-30T17:10:11.006Z,9.48
2022-07-30T17:12:39.321Z,9.85
2022-07-30T17:15:07.872Z,9.30
2022-07-30T17:17:34.870Z,9.27
2022-07-30T17:20:03.798Z,9.40
2022-07-30T17:22:30.985Z,9.50
2022-07-30T17:24:57.857Z,10.10
2022-07-30T17:27:28.782Z,9.80
2022-07-30T17:29:56.125Z,10.13
2022-07-30T17:32:23.328Z,9.82
2022-07-30T17:34:50.241Z,9.80
2022-07-30T17:37:17.613Z,9.77
2022-07-30T17:40:26.317Z,9.50
2022-07-30T17:42:31.811Z,9.73
2022-07-30T17:45:01.154Z,10.73
2022-07-30T17:47:28.472Z,10.25
2022-07-30T17:49:56.113Z,10.70
2022-07-30T17:52:26.378Z,10.80
2022-07-30T17:54:53.866Z,10.15
2022-07-30T17:57:21.237Z,10.30
2022-07-30T17:59:48.081Z,10.52
2022-07-30T18:02:14.996Z,10.43
2022-07-30T18:04:41.820Z,10.73
2022-07-30T18:07:08.710Z,10.77
2022-07-30T18:09:40.163Z,11.05
2022-07-30T18:12:07.953Z,11.15
2022-07-30T18:14:34.805Z,10.65
2022-07-30T18:17:02.818Z,11.13
2022-07-30T18:19:29.908Z,11.10
2022-07-30T18:21:57.052Z,10.70
2022-07-30T18:24:24.976Z,10.18
2022-07-30T18:26:52.742Z,10.75
2022-07-30T18:29:20.939Z,10.73
2022-07-30T18:31:48.171Z,11.07
2022-07-30T18:34:15.335Z,10.57
2022-07-30T18:36:42.078Z,10.75
2022-07-30T18:39:09.014Z,11.18
2022-07-30T18:41:35.928Z,10.82
2022-07-30T18:44:02.839Z,11.10
2022-07-30T18:46:29.827Z,11.25
2022-07-30T18:48:57.033Z,10.48
2022-07-30T18:51:25.290Z,10.40
2022-07-30T18:53:55.600Z,11.55
2022-07-30T18:56:22.418Z,11.90
2022-07-30T18:58:49.287Z,11.30
2022-07-30T19:01:18.343Z,12.40
2022-07-30T19:03:45.952Z,12.40
2022-07-30T19:06:12.820Z,11.50
2022-07-30T19:08:39.638Z,11.15
2022-07-30T19:11:06.437Z,12.07
2022-07-30T19:13:33.285Z,11.70
2022-07-30T19:16:00.218Z,12.10
2022-07-30T19:18:27.252Z,12.57
2022-07-30T19:20:54.117Z,11.48
2022-07-30T19:23:20.976Z,11.05
2022-07-30T19:25:47.950Z,11.60
2022-07-30T19:28:17.090Z,11.70
2022-07-30T19:30:44.028Z,11.30
2022-07-30T19:33:15.622Z,11.27
2022-07-30T19:35:43.157Z,12.02
2022-07-30T19:38:11.960Z,12.15
2022-07-30T19:40:49.251Z,11.63
2022-07-30T19:43:16.212Z,11.80
2022-07-30T19:45:47.756Z,11.65
2022-07-30T19:48:29.535Z,12.20
2022-07-30T19:51:00.725Z,10.98
2022-07-30T19:53:31.447Z,11.93
2022-07-30T19:56:04.433Z,11.75
2022-07-30T19:58:36.697Z,11.45
2022-07-30T20:01:08.398Z,11.20
2022-07-30T20:03:37.010Z,10.75
2022-07-30T20:06:07.261Z,10.55
2022-07-30T20:08:36.674Z,11.15
2022-07-30T20:11:07.357Z,10.35
2022-07-30T20:13:44.879Z,10.55
2022-07-30T20:16:15.482Z,10.35
2022-07-30T20:18:44.501Z,9.63
2022-07-30T20:21:15.620Z,10.30
2022-07-30T20:23:44.695Z,10.48
2022-07-30T20:26:14.266Z,10.45
2022-07-30T20:28:43.264Z,10.60
2022-07-30T20:31:13.052Z,11.55
2022-07-30T20:33:40.304Z,11.88
2022-07-30T20:36:09.701Z,11.13
2022-07-30T20:38:38.899Z,11.32
2022-07-30T20:41:09.808Z,10.82
2022-07-30T20:43:45.840Z,10.20
2022-07-30T20:46:18.545Z,10.45
2022-07-30T20:48:46.210Z,10.23
2022-07-30T20:51:13.226Z,10.48
2022-07-30T20:53:41.858Z,10.63
2022-07-30T20:56:13.443Z,9.90
2022-07-30T20:58:59.936Z,9.90
2022-07-30T21:01:30.737Z,10.20
2022-07-30T21:03:57.768Z,10.15
2022-07-30T21:06:26.267Z,8.30
2022-07-30T21:08:53.633Z,9.05
2022-07-30T21:11:22.535Z,9.85
2022-07-30T21:13:49.367Z,9.23
2022-07-30T21:16:16.897Z,9.13
2022-07-30T21:18:49.642Z,9.63
2022-07-30T21:21:30.591Z,10.35
2022-07-30T21:24:05.668Z,9.27
2022-07-30T21:26:32.544Z,9.02
2022-07-30T21:29:00.848Z,9.18
2022-07-30T21:31:58.070Z,7.75
2022-07-30T21:34:14.915Z,8.80
2022-07-30T21:36:43.102Z,10.00
2022-07-30T21:39:10.051Z,9.25
2022-07-30T21:41:41.176Z,8.93
2022-07-30T21:44:09.719Z,9.07
2022-07-30T21:46:38.018Z,8.80
2022-07-30T21:49:07.040Z,9.43
2022-07-30T21:51:34.724Z,9.05
2022-07-30T21:54:01.700Z,8.43
2022-07-30T21:56:34.157Z,7.50
2022-07-30T21:59:01.039Z,7.63
2022-07-30T22:01:27.855Z,8.15
2022-07-30T22:04:02.955Z,8.30
2022-07-30T22:06:35.531Z,8.38
2022-07-30T22:09:10.142Z,8.63
2022-07-30T22:14:33.268Z,8.30
2022-07-30T22:17:00.439Z,8.48
2022-07-30T22:19:27.327Z,8.20
2022-07-30T22:21:54.406Z,8.52
2022-07-30T22:24:29.576Z,8.38
2022-07-30T22:27:10.749Z,8.85
2022-07-30T22:29:43.103Z,8.68
2022-07-30T22:32:11.618Z,9.30
2022-07-30T22:34:38.533Z,8.15
2022-07-30T22:39:54.292Z,8.38
2022-07-30T22:42:24.063Z,8.50
2022-07-30T22:44:53.033Z,8.80
2022-07-30T22:47:51.070Z,8.32
2022-07-30T22:50:08.971Z,8.00
2022-07-30T22:52:40.112Z,8.52
2022-07-30T22:55:22.201Z,9.18
2022-07-30T22:57:49.441Z,8.48
2022-07-30T23:00:28.035Z,8.48
2022-07-30T23:02:56.589Z,7.78
2022-07-30T23:05:24.584Z,8.30
2022-07-30T23:07:51.783Z,8.27
2022-07-30T23:12:28.965Z,9.35
2022-07-30T23:12:31.001Z,8.40
2022-07-30T23:12:32.586Z,8.88
2022-07-30T23:15:38.218Z,7.88
2022-07-30T23:18:05.406Z,8.00
2022-07-30T23:20:32.290Z,8.88
2022-07-30T23:23:01.480Z,8.52
2022-07-30T23:25:38.491Z,9.18
2022-07-30T23:28:06.171Z,8.60
2022-07-30T23:30:34.126Z,8.65
2022-07-30T23:33:02.210Z,8.65
2022-07-30T23:35:29.080Z,8.20
2022-07-30T23:37:55.903Z,9.07
2022-07-30T23:40:23.415Z,8.48
2022-07-30T23:42:51.011Z,8.88
2022-07-30T23:45:18.433Z,9.75
2022-07-30T23:48:01.335Z,8.63
2022-07-30T23:50:32.178Z,9.30
2022-07-30T23:52:59.831Z,9.18
2022-07-30T23:55:27.230Z,9.65
2022-07-30T23:57:54.739Z,8.98
